»·PEaware :: DAL1150 PHNL-KLAX

DAL1150 :: PHNL-KLAX

FLIGHT INFORMATION

Flight Status: Arrived
Operator:
Delta Air Lines
More flights by this operator :: More flights under this callsign
Pilot: Bryan Snider (13276)
Aircraft: BOEING 737-800
(B738)
More flights by this aircraft type
Origin: PHNL Honolulu Intl
United States
Destination: KLAX Los Angeles Intl
United States
More flights between these airports :: More routes between these airports
Route: +MKK4 EBBER R577 ETNIC R577 ELKEY RYDRR1
File this flight plan on PilotEdge
Remarks:
Altitude:
(Current/Filed)
31,000ft
Speed:
(Current/Filed)
456kts
Departed: 20-May-17 10:55 AM
Arrived: 20-May-17 03:50 PM
Distance/Time
Traveled:
2217nm/4:55
Distance/Time
To Go:
Arrived

Flight Plot

Page will automatically refresh every two minutes.

Flight plan parsing failed; only flown route is shown


Map Options




Map Legend


Flown Route
Filed Route
Departure Airport
Arrival Airport
Navaid (VOR, NDB)
Fix

Horizontal Profiles

Position Reports

Time Latitude Longitude Heading Altitude Ground
Speed
20-May-17 10:02 21.330479 -157.919586 280 36ft 0kts
20-May-17 10:03 21.330479 -157.919586 280 36ft 0kts
20-May-17 10:04 21.330479 -157.919586 280 36ft 0kts
20-May-17 10:05 21.330479 -157.919586 280 36ft 0kts
20-May-17 10:06 21.330479 -157.919586 280 36ft 0kts
20-May-17 10:07 21.330479 -157.919586 280 36ft 0kts
20-May-17 10:08 21.330479 -157.919586 280 36ft 0kts
20-May-17 10:09 21.330479 -157.919586 280 36ft 0kts
20-May-17 10:10 21.330480 -157.919590 280 37ft 0kts
20-May-17 10:11 21.330480 -157.919590 280 36ft 0kts
20-May-17 10:12 21.330480 -157.919590 280 36ft 0kts
20-May-17 10:21 21.330479 -157.919585 280 36ft 0kts
20-May-17 10:22 21.330479 -157.919585 280 36ft 0kts
20-May-17 10:23 21.330479 -157.919585 280 36ft 0kts
20-May-17 10:24 21.330479 -157.919585 280 36ft 0kts
20-May-17 10:25 21.330479 -157.919585 280 36ft 0kts
20-May-17 10:26 21.330479 -157.919585 280 36ft 0kts
20-May-17 10:27 21.330479 -157.919585 280 36ft 0kts
20-May-17 10:28 21.330479 -157.919585 280 36ft 0kts
20-May-17 10:29 21.330479 -157.919585 280 36ft 0kts
20-May-17 10:30 21.330479 -157.919585 280 36ft 0kts
20-May-17 10:31 21.330479 -157.919585 280 36ft 0kts
20-May-17 10:32 21.330479 -157.919585 280 36ft 0kts
20-May-17 10:33 21.330479 -157.919585 280 36ft 0kts
20-May-17 10:34 21.330479 -157.919585 280 36ft 0kts
20-May-17 10:35 21.330479 -157.919585 280 36ft 0kts
20-May-17 10:36 21.330479 -157.919585 280 36ft 0kts
20-May-17 10:37 21.330452 -157.919422 279 35ft 1kts
20-May-17 10:38 21.330391 -157.918855 272 35ft 1kts
20-May-17 10:39 21.330387 -157.918765 271 35ft 0kts
20-May-17 10:40 21.330387 -157.918765 271 35ft 0kts
20-May-17 10:41 21.330387 -157.918765 271 35ft 0kts
20-May-17 10:42 21.330387 -157.918765 271 35ft 0kts
20-May-17 10:43 21.330387 -157.918765 271 35ft 0kts
20-May-17 10:44 21.330387 -157.918765 271 35ft 0kts
20-May-17 10:45 21.330387 -157.918765 271 35ft 0kts
20-May-17 10:46 21.330387 -157.918765 271 35ft 0kts
20-May-17 10:47 21.330387 -157.918765 271 35ft 0kts
20-May-17 10:48 21.329973 -157.918914 185 34ft 7kts
20-May-17 10:49 21.327920 -157.919320 221 28ft 6kts
20-May-17 10:50 21.327737 -157.922276 269 31ft 11kts
20-May-17 10:51 21.327752 -157.926639 269 30ft 19kts
20-May-17 10:52 21.327425 -157.931791 275 24ft 20kts
20-May-17 10:53 21.327498 -157.935546 267 24ft 18kts
20-May-17 10:54 21.327410 -157.939054 270 25ft 11kts
20-May-17 10:55 21.327406 -157.942984 258 24ft 11kts
20-May-17 10:56 21.325262 -157.942892 94 24ft 10kts
20-May-17 10:57 21.325258 -157.921379 89 25ft 157kts
20-May-17 10:58 21.316361 -157.884533 154 1135ft 169kts
20-May-17 10:59 21.263535 -157.864244 158 2021ft 234kts
20-May-17 11:00 21.199524 -157.835259 154 3746ft 273kts
20-May-17 11:01 21.131335 -157.799769 151 6271ft 279kts
20-May-17 11:02 21.081409 -157.742769 85 8473ft 282kts
20-May-17 11:03 21.100188 -157.658886 74 9871ft 319kts
20-May-17 11:04 21.122779 -157.564745 74 11747ft 340kts
20-May-17 11:05 21.146298 -157.466617 74 13902ft 348kts
20-May-17 11:06 21.193385 -157.269299 75 18144ft 369kts
20-May-17 11:07 21.250081 -157.030121 76 22561ft 394kts
20-May-17 11:08 21.319817 -156.733302 76 26792ft 420kts
20-May-17 11:09 21.327854 -156.383859 91 30431ft 444kts
20-May-17 11:10 21.320287 -156.040349 91 31083ft 448kts
20-May-17 11:11 21.310503 -155.636671 91 31080ft 459kts
20-May-17 11:12 21.295969 -155.098884 92 31082ft 459kts
20-May-17 11:13 21.298129 -154.687025 77 31054ft 461kts
20-May-17 11:14 21.381178 -154.309114 76 31093ft 459kts
20-May-17 11:15 21.478264 -153.866393 76 31091ft 459kts
20-May-17 11:16 21.569332 -153.445652 76 31090ft 459kts
20-May-17 11:17 21.748911 -153.077044 61 31091ft 459kts
20-May-17 11:18 21.909119 -152.758991 60 31089ft 457kts
20-May-17 11:19 21.988532 -152.600599 60 31089ft 457kts
20-May-17 11:20 22.048691 -152.480286 60 31088ft 457kts
20-May-17 11:21 22.108793 -152.359806 60 31090ft 457kts
20-May-17 11:22 22.168798 -152.239249 60 31093ft 457kts
20-May-17 11:23 22.228682 -152.118652 60 31092ft 457kts
20-May-17 11:24 22.288515 -151.997874 60 31092ft 457kts
20-May-17 11:25 22.348302 -151.876839 61 31091ft 457kts
20-May-17 11:26 22.407628 -151.755813 61 31091ft 457kts
20-May-17 11:27 22.466900 -151.634598 61 31090ft 457kts
20-May-17 11:28 22.526159 -151.513120 61 31090ft 457kts
20-May-17 11:29 22.585257 -151.391680 61 31090ft 457kts
20-May-17 11:30 22.644151 -151.270372 61 31091ft 457kts
20-May-17 11:31 22.703032 -151.148747 61 31090ft 456kts
20-May-17 11:32 22.761683 -151.027297 60 31090ft 454kts
20-May-17 11:33 22.820012 -150.906327 59 31089ft 454kts
20-May-17 11:34 22.878086 -150.785590 59 31089ft 454kts
20-May-17 11:35 22.936352 -150.664081 59 31088ft 455kts
20-May-17 11:36 22.994639 -150.542255 59 31087ft 456kts
20-May-17 11:37 23.052844 -150.420303 59 31087ft 456kts
20-May-17 11:38 23.111030 -150.298126 59 31096ft 456kts
20-May-17 11:39 23.168998 -150.176072 59 31092ft 456kts
20-May-17 11:40 23.226956 -150.053740 59 31093ft 456kts
20-May-17 11:41 23.284942 -149.931034 59 31093ft 456kts
20-May-17 11:42 23.342810 -149.808270 59 31093ft 457kts
20-May-17 11:43 23.400443 -149.685690 59 31092ft 456kts
20-May-17 11:44 23.458120 -149.562709 59 31091ft 456kts
20-May-17 11:45 23.515586 -149.439867 59 31090ft 456kts
20-May-17 11:46 23.572980 -149.316852 59 31090ft 456kts
20-May-17 11:47 23.630373 -149.193547 59 31091ft 456kts
20-May-17 11:48 23.687658 -149.070145 60 31090ft 456kts
20-May-17 11:49 23.744551 -148.947255 59 31089ft 453kts
20-May-17 11:50 23.800943 -148.825153 59 31088ft 449kts
20-May-17 11:51 23.856801 -148.703903 59 31088ft 448kts
20-May-17 11:52 23.912525 -148.582619 59 31087ft 448kts
20-May-17 11:53 23.968046 -148.461469 59 31086ft 448kts
20-May-17 11:54 24.023249 -148.340698 60 31085ft 448kts
20-May-17 11:55 24.069631 -148.239006 60 31086ft 448kts
20-May-17 11:56 24.134214 -148.097011 60 31095ft 448kts
20-May-17 11:57 24.180359 -147.995291 60 31094ft 448kts
20-May-17 11:58 24.235429 -147.873611 60 31093ft 448kts
20-May-17 11:59 24.299569 -147.731483 60 31093ft 448kts
20-May-17 12:00 24.345404 -147.629648 60 31092ft 448kts
20-May-17 12:01 24.409479 -147.486910 60 31091ft 448kts
20-May-17 12:02 24.455182 -147.384829 60 31090ft 448kts
20-May-17 12:03 24.509872 -147.262370 60 31091ft 448kts
20-May-17 12:04 24.564546 -147.139626 60 31091ft 448kts
20-May-17 12:05 24.618791 -147.017458 60 31099ft 444kts
20-May-17 12:06 24.672404 -146.896445 60 31098ft 438kts
20-May-17 12:07 24.725254 -146.776885 60 31097ft 437kts
20-May-17 12:08 24.778189 -146.656771 60 31096ft 437kts
20-May-17 12:09 24.830950 -146.536727 60 31095ft 437kts
20-May-17 12:10 24.883587 -146.416644 60 31094ft 437kts
20-May-17 12:11 24.936215 -146.296264 60 31095ft 437kts
20-May-17 12:12 24.988826 -146.175613 60 31095ft 437kts
20-May-17 12:13 25.041176 -146.055219 60 31094ft 437kts
20-May-17 12:14 25.093483 -145.934594 60 31093ft 437kts
20-May-17 12:15 25.145537 -145.814222 60 31103ft 436kts
20-May-17 12:16 25.197667 -145.693348 60 31102ft 437kts
20-May-17 12:17 25.249577 -145.572656 60 31101ft 436kts
20-May-17 12:18 25.301410 -145.451760 60 31100ft 437kts
20-May-17 12:19 25.353158 -145.330665 61 31102ft 437kts
20-May-17 12:20 25.404792 -145.209505 61 31102ft 437kts
20-May-17 12:21 25.456036 -145.088875 60 31101ft 432kts
20-May-17 12:22 25.506589 -144.969593 60 31100ft 428kts
20-May-17 12:23 25.556842 -144.850746 60 31099ft 427kts
20-May-17 12:24 25.606946 -144.731879 60 31098ft 427kts
20-May-17 12:25 25.657000 -144.612796 60 31096ft 427kts
20-May-17 12:26 25.706937 -144.493660 60 31095ft 427kts
20-May-17 12:27 25.756749 -144.374491 60 31094ft 427kts
20-May-17 12:28 25.806491 -144.255165 60 31097ft 427kts
20-May-17 12:29 25.856326 -144.135280 60 31096ft 427kts
20-May-17 12:30 25.905865 -144.015764 60 31095ft 427kts
20-May-17 12:31 25.955385 -143.895956 60 31094ft 427kts
20-May-17 12:32 26.004792 -143.776079 60 31092ft 427kts
20-May-17 12:33 26.054119 -143.656058 60 31091ft 427kts
20-May-17 12:34 26.103221 -143.536244 60 31092ft 427kts
20-May-17 12:35 26.152308 -143.416134 60 31102ft 427kts
20-May-17 12:36 26.201414 -143.295617 61 31105ft 428kts
20-May-17 12:37 26.250213 -143.175515 61 31105ft 428kts
20-May-17 12:38 26.299159 -143.054701 61 31103ft 428kts
20-May-17 12:39 26.347597 -142.934746 61 31102ft 423kts
20-May-17 12:40 26.395325 -142.816255 60 31101ft 417kts
20-May-17 12:41 26.442643 -142.698481 60 31100ft 416kts
20-May-17 12:42 26.489749 -142.580863 60 31097ft 416kts
20-May-17 12:43 26.536868 -142.462874 60 31096ft 416kts
20-May-17 12:44 26.583677 -142.345330 61 31094ft 416kts
20-May-17 12:45 26.630628 -142.227072 61 31100ft 417kts
20-May-17 12:46 26.677373 -142.108988 61 31099ft 417kts
20-May-17 12:47 26.724184 -141.990400 61 31097ft 417kts
20-May-17 12:48 26.770767 -141.872052 61 31096ft 416kts
20-May-17 12:49 26.817190 -141.753759 61 31094ft 417kts
20-May-17 12:50 26.863627 -141.635077 61 31092ft 417kts
20-May-17 12:51 26.909854 -141.516601 61 31091ft 418kts
20-May-17 12:52 26.956139 -141.397626 61 31089ft 419kts
20-May-17 12:53 27.002825 -141.277243 62 31096ft 422kts
20-May-17 12:54 27.049531 -141.156443 62 31094ft 423kts
20-May-17 12:55 27.095978 -141.035887 62 31092ft 422kts
20-May-17 12:56 27.142190 -140.915610 62 31106ft 419kts
20-May-17 12:57 27.188181 -140.795582 62 31107ft 418kts
20-May-17 12:58 27.233945 -140.675806 61 31106ft 418kts
20-May-17 12:59 27.279550 -140.556039 62 31095ft 418kts
20-May-17 13:00 27.325179 -140.435860 61 31096ft 418kts
20-May-17 13:01 27.370668 -140.315644 62 31104ft 419kts
20-May-17 13:02 27.416009 -140.195466 62 31108ft 419kts
20-May-17 13:03 27.461289 -140.075115 62 31098ft 418kts
20-May-17 13:04 27.506410 -139.954770 62 31100ft 418kts
20-May-17 13:05 27.551498 -139.834107 62 31094ft 419kts
20-May-17 13:06 27.596524 -139.713288 62 31097ft 419kts
20-May-17 13:07 27.641490 -139.592210 62 31090ft 420kts
20-May-17 13:08 27.686395 -139.470951 62 31097ft 419kts
20-May-17 13:09 27.731137 -139.349719 62 31097ft 420kts
20-May-17 13:10 27.775744 -139.228480 63 31104ft 419kts
20-May-17 13:11 27.820815 -139.105782 63 31091ft 433kts
20-May-17 13:12 27.867624 -138.977829 64 31094ft 449kts
20-May-17 13:13 27.915322 -138.846633 64 31093ft 451kts
20-May-17 13:14 27.962739 -138.715844 64 31098ft 451kts
20-May-17 13:15 28.010129 -138.584735 64 31098ft 451kts
20-May-17 13:16 28.057352 -138.453584 65 31084ft 450kts
20-May-17 13:17 28.104152 -138.323160 65 31066ft 450kts
20-May-17 13:18 28.151091 -138.191907 65 31065ft 449kts
20-May-17 13:19 28.197715 -138.061094 65 31059ft 450kts
20-May-17 13:20 28.244444 -137.929451 65 31066ft 450kts
20-May-17 13:21 28.290863 -137.798263 65 31060ft 450kts
20-May-17 13:22 28.337216 -137.666765 65 31066ft 450kts
20-May-17 13:23 28.383537 -137.534898 65 31061ft 450kts
20-May-17 13:24 28.429509 -137.403546 65 31062ft 450kts
20-May-17 13:25 28.475590 -137.271401 65 31065ft 449kts
20-May-17 13:26 28.521388 -137.139586 65 31061ft 449kts
20-May-17 13:27 28.567109 -137.007547 65 31060ft 451kts
20-May-17 13:28 28.613463 -136.873240 66 31063ft 461kts
20-May-17 13:29 28.660452 -136.736459 66 31062ft 464kts
20-May-17 13:30 28.707175 -136.599910 66 31063ft 464kts
20-May-17 13:31 28.753980 -136.462650 66 31062ft 464kts
20-May-17 13:32 28.800399 -136.325993 67 31062ft 465kts
20-May-17 13:33 28.826118 -136.250055 67 31062ft 464kts
20-May-17 13:34 28.872419 -136.112929 67 31062ft 465kts
20-May-17 13:35 28.918573 -135.975704 67 31063ft 465kts
20-May-17 13:36 28.964727 -135.837928 67 31061ft 464kts
20-May-17 13:37 29.010431 -135.700882 66 31061ft 461kts
20-May-17 13:38 29.055565 -135.565099 66 31061ft 457kts
20-May-17 13:39 29.100193 -135.430331 65 31060ft 452kts
20-May-17 13:40 29.144408 -135.296333 66 31068ft 450kts
20-May-17 13:41 29.188345 -135.162637 66 31063ft 450kts
20-May-17 13:42 29.232550 -135.027653 66 31067ft 461kts
20-May-17 13:43 29.277893 -134.888661 67 31065ft 471kts
20-May-17 13:44 29.323303 -134.748617 67 31065ft 471kts
20-May-17 13:45 29.368738 -134.608068 67 31065ft 471kts
20-May-17 13:46 29.414015 -134.467445 67 31065ft 471kts
20-May-17 13:47 29.459253 -134.326351 68 31063ft 471kts
20-May-17 13:48 29.504189 -134.185611 68 31064ft 471kts
20-May-17 13:49 29.548992 -134.044711 68 31063ft 471kts
20-May-17 13:50 29.593732 -133.903413 68 31064ft 471kts
20-May-17 13:51 29.638367 -133.761835 68 31063ft 471kts
20-May-17 13:52 29.682622 -133.620872 68 31064ft 471kts
20-May-17 13:53 29.726950 -133.479066 68 31063ft 471kts
20-May-17 13:54 29.771115 -133.337178 68 31063ft 471kts
20-May-17 13:55 29.815006 -133.195572 68 31062ft 471kts
20-May-17 13:56 29.859413 -133.051807 69 31063ft 483kts
20-May-17 13:57 29.904370 -132.905464 70 31063ft 487kts
20-May-17 13:58 29.949264 -132.758534 70 31065ft 487kts
20-May-17 13:59 29.994000 -132.611578 70 31065ft 487kts
20-May-17 14:00 30.038638 -132.464288 70 31066ft 487kts
20-May-17 14:01 30.083153 -132.316735 70 31062ft 487kts
20-May-17 14:02 30.127335 -132.169605 70 31062ft 487kts
20-May-17 14:03 30.171535 -132.021731 70 31063ft 487kts
20-May-17 14:04 30.215503 -131.873948 70 31063ft 487kts
20-May-17 14:05 30.259273 -131.726143 70 31064ft 487kts
20-May-17 14:06 30.308573 -131.581049 63 31052ft 488kts
20-May-17 14:07 30.366693 -131.440159 63 31063ft 486kts
20-May-17 14:08 30.424768 -131.298785 64 31056ft 486kts
20-May-17 14:09 30.482647 -131.157337 64 31056ft 486kts
20-May-17 14:10 30.540333 -131.015834 64 31055ft 486kts
20-May-17 14:11 30.597772 -130.874412 64 31056ft 484kts
20-May-17 14:12 30.654695 -130.733679 64 31056ft 482kts
20-May-17 14:13 30.711383 -130.592995 64 31056ft 482kts
20-May-17 14:14 30.768000 -130.451952 64 31056ft 482kts
20-May-17 14:15 30.824502 -130.310660 64 31053ft 482kts
20-May-17 14:16 30.880837 -130.169225 64 31054ft 482kts
20-May-17 14:17 30.936781 -130.028270 65 31055ft 481kts
20-May-17 14:18 30.992232 -129.887986 66 31057ft 475kts
20-May-17 14:19 31.047094 -129.748557 66 31056ft 473kts
20-May-17 14:20 31.101364 -129.610169 66 31056ft 473kts
20-May-17 14:21 31.155735 -129.471002 66 31053ft 473kts
20-May-17 14:22 31.210125 -129.331230 66 31054ft 473kts
20-May-17 14:23 31.264337 -129.191347 66 31054ft 473kts
20-May-17 14:24 31.318367 -129.051399 66 31054ft 473kts
20-May-17 14:25 31.372080 -128.911722 66 31054ft 473kts
20-May-17 14:26 31.425827 -128.771395 66 31054ft 473kts
20-May-17 14:27 31.479463 -128.630799 66 31054ft 473kts
20-May-17 14:28 31.532839 -128.490321 66 31055ft 473kts
20-May-17 14:29 31.585816 -128.350328 66 31055ft 473kts
20-May-17 14:30 31.638896 -128.209506 67 31055ft 473kts
20-May-17 14:31 31.691848 -128.068446 67 31055ft 473kts
20-May-17 14:32 31.744642 -127.927235 67 31055ft 473kts
20-May-17 14:33 31.797275 -127.785871 67 31055ft 473kts
20-May-17 14:34 31.849756 -127.644286 67 31046ft 474kts
20-May-17 14:35 31.902204 -127.502300 67 31046ft 474kts
20-May-17 14:36 31.947143 -127.358116 80 31111ft 471kts
20-May-17 14:37 31.965161 -127.205284 84 31047ft 471kts
20-May-17 14:38 31.980785 -127.052044 84 31046ft 471kts
20-May-17 14:39 31.996029 -126.899356 84 31046ft 471kts
20-May-17 14:40 32.011097 -126.746484 84 31047ft 471kts
20-May-17 14:41 32.026047 -126.592904 84 31036ft 471kts
20-May-17 14:42 32.040763 -126.439790 84 31026ft 471kts
20-May-17 14:43 32.055282 -126.286805 84 31022ft 471kts
20-May-17 14:44 32.069661 -126.133293 84 31019ft 471kts
20-May-17 14:45 32.083835 -125.979923 84 31019ft 471kts
20-May-17 14:46 32.097835 -125.826377 84 31019ft 471kts
20-May-17 14:47 32.111616 -125.673188 84 31017ft 471kts
20-May-17 14:48 32.125268 -125.519323 84 31017ft 471kts
20-May-17 14:49 32.138707 -125.365717 84 31017ft 471kts
20-May-17 14:50 32.151917 -125.212521 85 31017ft 471kts
20-May-17 14:51 32.164978 -125.058909 85 31017ft 471kts
20-May-17 14:52 32.177854 -124.905236 85 31017ft 472kts
20-May-17 14:53 32.190555 -124.751399 85 31017ft 473kts
20-May-17 14:54 32.201023 -124.622866 85 31017ft 473kts
20-May-17 14:55 32.215472 -124.442682 85 31017ft 473kts
20-May-17 14:56 32.225623 -124.314114 85 31017ft 473kts
20-May-17 14:57 32.237640 -124.159658 85 31017ft 473kts
20-May-17 14:58 32.266734 -123.982259 77 31011ft 474kts
20-May-17 14:59 32.292759 -123.856451 77 31018ft 474kts
20-May-17 15:00 32.329093 -123.680319 77 31018ft 474kts
20-May-17 15:01 32.354934 -123.554270 77 31018ft 474kts
20-May-17 15:02 32.390898 -123.377696 77 31018ft 474kts
20-May-17 15:03 32.416399 -123.251669 77 31017ft 474kts
20-May-17 15:04 32.446843 -123.100304 77 31018ft 474kts
20-May-17 15:05 32.478788 -122.949019 75 31019ft 474kts
20-May-17 15:06 32.513476 -122.798959 75 31018ft 473kts
20-May-17 15:07 32.548054 -122.648504 75 31018ft 473kts
20-May-17 15:08 32.582293 -122.498654 75 31018ft 473kts
20-May-17 15:09 32.616442 -122.348303 76 31018ft 473kts
20-May-17 15:10 32.650452 -122.197666 76 31018ft 473kts
20-May-17 15:11 32.688012 -122.048357 62 31006ft 474kts
20-May-17 15:12 32.755543 -121.913080 59 31015ft 476kts
20-May-17 15:13 32.824760 -121.779700 59 31019ft 476kts
20-May-17 15:14 32.894329 -121.645454 59 31019ft 476kts
20-May-17 15:15 32.963547 -121.511416 59 31019ft 476kts
20-May-17 15:16 33.032686 -121.377038 59 31018ft 478kts
20-May-17 15:17 33.101844 -121.242140 59 31017ft 481kts
20-May-17 15:18 33.171085 -121.106589 59 31011ft 483kts
20-May-17 15:19 33.240854 -120.969479 59 31001ft 486kts
20-May-17 15:20 33.310917 -120.831281 59 31000ft 487kts
20-May-17 15:21 33.380618 -120.693272 59 31000ft 487kts
20-May-17 15:22 33.450322 -120.554730 59 31000ft 487kts
20-May-17 15:23 33.519585 -120.416572 59 30102ft 480kts
20-May-17 15:24 33.586607 -120.282347 60 29114ft 471kts
20-May-17 15:25 33.653095 -120.148694 60 28110ft 463kts
20-May-17 15:26 33.714466 -120.024883 61 27170ft 456kts
20-May-17 15:27 33.778426 -119.895398 61 26176ft 448kts
20-May-17 15:28 33.841025 -119.768210 61 25182ft 439kts
20-May-17 15:29 33.902395 -119.643165 61 24187ft 432kts
20-May-17 15:30 33.962680 -119.520607 61 21953ft 423kts
20-May-17 15:31 34.021400 -119.400809 61 18975ft 411kts
20-May-17 15:32 34.072081 -119.297177 61 15417ft 342kts
20-May-17 15:33 34.118922 -119.201189 60 13268ft 342kts
20-May-17 15:34 34.165579 -119.105405 60 11637ft 323kts
20-May-17 15:35 34.159462 -119.003682 111 11034ft 321kts
20-May-17 15:36 34.123675 -118.904963 112 11042ft 327kts
20-May-17 15:37 34.086744 -118.809591 112 11012ft 287kts
20-May-17 15:38 34.051876 -118.720374 112 10432ft 296kts
20-May-17 15:39 34.027291 -118.627705 94 9454ft 293kts
20-May-17 15:40 34.017316 -118.530549 93 7966ft 292kts
20-May-17 15:41 34.013932 -118.443789 77 6893ft 249kts
20-May-17 15:42 34.026071 -118.369101 81 6023ft 240kts
20-May-17 15:43 34.036400 -118.302502 82 5963ft 234kts
20-May-17 15:44 34.046990 -118.235892 82 5298ft 193kts
20-May-17 15:45 34.037697 -118.180717 166 4673ft 206kts
20-May-17 15:46 33.985353 -118.182784 217 3910ft 187kts
20-May-17 15:47 33.969989 -118.231080 261 2976ft 175kts
20-May-17 15:48 33.964630 -118.281741 261 2080ft 146kts
20-May-17 15:49 33.959862 -118.328406 261 1381ft 143kts
20-May-17 15:50 33.954658 -118.375256 261 716ft 142kts
20-May-17 15:51 33.950532 -118.417271 265 122ft 58kts
20-May-17 15:52 33.948568 -118.426733 226 113ft 5kts
20-May-17 15:53 33.946797 -118.427823 184 109ft 0kts
20-May-17 15:54 33.946521 -118.425452 82 111ft 17kts
20-May-17 15:55 33.947033 -118.420291 82 116ft 12kts
20-May-17 15:56 33.947360 -118.417132 83 119ft 13kts
20-May-17 15:57 33.948013 -118.412185 83 122ft 17kts
20-May-17 15:58 33.947435 -118.409017 210 120ft 7kts
20-May-17 15:59 33.945658 -118.408915 172 120ft 0kts
20-May-17 16:00 33.945658 -118.408915 172 120ft 0kts
20-May-17 16:01 33.945382 -118.408744 120 120ft 1kts
20-May-17 16:02 33.945578 -118.408235 47 119ft 1kts
20-May-17 16:03 33.945868 -118.407853 47 119ft 0kts
20-May-17 16:04 33.945870 -118.407850 47 119ft 0kts
20-May-17 16:05 33.945870 -118.407850 47 119ft 0kts
20-May-17 16:06 33.945870 -118.407850 47 119ft 0kts

Navigation Log

Ident Type
Flight plan parsing failed, navigation log unavailable